createdAt,value
2023-03-29T00:02:19.856Z,100598.77
2023-03-29T00:04:47.354Z,100603.86
2023-03-29T00:07:14.497Z,100604.92
2023-03-29T00:09:42.647Z,100606.60
2023-03-29T00:12:11.808Z,100609.33
2023-03-29T00:14:38.850Z,100607.48
2023-03-29T00:17:06.506Z,100608.81
2023-03-29T00:19:35.893Z,100607.99
2023-03-29T00:22:06.317Z,100612.58
2023-03-29T00:24:33.491Z,100610.00
2023-03-29T00:27:01.157Z,100609.12
2023-03-29T00:29:28.672Z,100605.75
2023-03-29T00:31:56.207Z,100610.07
2023-03-29T00:34:24.874Z,100609.33
2023-03-29T00:36:53.182Z,100608.77
2023-03-29T00:39:21.110Z,100614.61
2023-03-29T00:41:49.466Z,100612.84
2023-03-29T00:44:53.885Z,100610.77
2023-03-29T00:47:48.881Z,100611.11
2023-03-29T00:50:26.487Z,100610.20
2023-03-29T00:53:01.571Z,100610.76
2023-03-29T00:55:33.074Z,100608.89
2023-03-29T00:58:02.761Z,100603.38
2023-03-29T01:00:37.178Z,100602.41
2023-03-29T01:03:13.905Z,100604.45
2023-03-29T01:05:47.910Z,100599.88
2023-03-29T01:08:25.816Z,100600.86
2023-03-29T01:11:27.557Z,100602.63
2023-03-29T01:14:11.454Z,100602.41
2023-03-29T01:16:38.738Z,100600.40
2023-03-29T01:19:09.467Z,100601.75
2023-03-29T01:21:51.748Z,100603.14
2023-03-29T01:24:33.102Z,100599.86
2023-03-29T01:27:23.811Z,100599.48
2023-03-29T01:29:57.456Z,100594.70
2023-03-29T01:32:40.487Z,100595.97
2023-03-29T01:35:21.179Z,100596.07
2023-03-29T01:38:10.688Z,100594.56
2023-03-29T01:40:37.836Z,100596.25
2023-03-29T01:43:21.566Z,100596.70
2023-03-29T01:46:03.289Z,100596.04
2023-03-29T01:48:51.862Z,100591.08
2023-03-29T01:51:26.641Z,100590.35
2023-03-29T01:54:13.094Z,100592.06
2023-03-29T01:56:44.208Z,100590.52
2023-03-29T01:59:16.201Z,100589.88
2023-03-29T02:01:49.665Z,100596.41
2023-03-29T02:04:21.969Z,100600.57
2023-03-29T02:06:54.307Z,100597.27
2023-03-29T02:09:23.601Z,100594.70
2023-03-29T02:11:52.747Z,100600.47
2023-03-29T02:14:20.147Z,100601.59
2023-03-29T02:16:49.781Z,100598.96
2023-03-29T02:19:18.862Z,100602.95
2023-03-29T02:21:55.911Z,100601.20
2023-03-29T02:24:25.200Z,100602.35
2023-03-29T02:26:52.744Z,100600.00
2023-03-29T02:29:20.079Z,100604.23
2023-03-29T02:31:55.803Z,100601.23
2023-03-29T02:34:58.869Z,100600.36
2023-03-29T02:37:30.446Z,100601.27
2023-03-29T02:39:59.701Z,100601.10
2023-03-29T02:42:28.690Z,100599.55
2023-03-29T02:44:59.095Z,100597.33
2023-03-29T02:47:35.863Z,100597.22
2023-03-29T02:50:03.229Z,100596.41
2023-03-29T02:52:47.254Z,100598.34
2023-03-29T02:55:17.476Z,100595.39
2023-03-29T02:57:44.760Z,100597.57
2023-03-29T03:00:14.765Z,100597.11
2023-03-29T03:02:42.001Z,100600.09
2023-03-29T03:05:09.971Z,100603.30
2023-03-29T03:07:37.450Z,100605.23
2023-03-29T03:10:05.151Z,100610.14
2023-03-29T03:12:32.315Z,100611.83
2023-03-29T03:14:59.698Z,100612.44
2023-03-29T03:17:26.887Z,100614.20
2023-03-29T03:19:54.067Z,100610.64
2023-03-29T03:22:21.150Z,100614.93
2023-03-29T03:24:49.372Z,100616.28
2023-03-29T03:27:16.928Z,100616.52
2023-03-29T03:29:44.258Z,100615.17
2023-03-29T03:32:14.277Z,100615.79
2023-03-29T03:34:50.773Z,100619.52
2023-03-29T03:37:18.252Z,100621.58
2023-03-29T03:39:46.316Z,100625.60
2023-03-29T03:42:13.988Z,100624.90
2023-03-29T03:44:42.837Z,100629.67
2023-03-29T03:47:40.143Z,100632.88
2023-03-29T03:50:22.067Z,100634.58
2023-03-29T03:52:49.436Z,100635.11
2023-03-29T03:55:16.689Z,100632.52
2023-03-29T03:57:48.033Z,100629.39
2023-03-29T04:00:19.954Z,100630.80
2023-03-29T04:02:54.350Z,100626.91
2023-03-29T04:05:21.835Z,100629.92
2023-03-29T04:07:49.719Z,100634.26
2023-03-29T04:10:28.725Z,100639.39
2023-03-29T04:13:08.704Z,100637.31
2023-03-29T04:15:43.445Z,100636.02
2023-03-29T04:18:12.621Z,100637.57
2023-03-29T04:20:44.902Z,100634.90
2023-03-29T04:23:12.522Z,100636.86
2023-03-29T04:25:40.810Z,100635.82
2023-03-29T04:28:26.066Z,100641.41
2023-03-29T04:31:19.413Z,100639.80
2023-03-29T04:34:00.481Z,100641.67
2023-03-29T04:36:28.250Z,100639.09
2023-03-29T04:38:56.246Z,100641.16
2023-03-29T04:41:25.484Z,100638.21
2023-03-29T04:43:56.202Z,100638.44
2023-03-29T04:46:28.054Z,100640.95
2023-03-29T04:49:27.483Z,100640.03
2023-03-29T04:51:54.850Z,100636.89
2023-03-29T04:54:24.724Z,100636.27
2023-03-29T04:57:11.119Z,100635.85
2023-03-29T05:00:15.420Z,100632.73
2023-03-29T05:03:01.644Z,100636.09
2023-03-29T05:05:31.490Z,100634.95
2023-03-29T05:08:00.577Z,100636.52
2023-03-29T05:10:34.337Z,100638.69
2023-03-29T05:13:01.946Z,100638.19
2023-03-29T05:15:30.069Z,100636.96
2023-03-29T05:17:59.094Z,100636.21
2023-03-29T05:20:26.898Z,100634.11
2023-03-29T05:22:54.948Z,100636.08
2023-03-29T05:25:43.916Z,100637.67
2023-03-29T05:28:11.066Z,100637.48
2023-03-29T05:30:38.748Z,100641.67
2023-03-29T05:33:16.578Z,100641.80
2023-03-29T05:35:46.265Z,100641.83
2023-03-29T05:38:13.797Z,100645.41
2023-03-29T05:40:41.698Z,100645.36
2023-03-29T05:43:29.621Z,100647.80
2023-03-29T05:45:57.166Z,100647.65
2023-03-29T05:48:26.280Z,100648.80
2023-03-29T05:50:55.407Z,100647.70
2023-03-29T05:53:24.779Z,100645.75
2023-03-29T05:55:52.059Z,100639.90
2023-03-29T05:58:21.742Z,100637.23
2023-03-29T06:00:50.296Z,100642.33
2023-03-29T06:03:36.873Z,100643.14
2023-03-29T06:06:04.615Z,100638.79
2023-03-29T06:08:33.783Z,100635.27
2023-03-29T06:11:24.355Z,100638.08
2023-03-29T06:14:10.631Z,100640.95
2023-03-29T06:16:43.776Z,100641.23
2023-03-29T06:19:11.269Z,100642.02
2023-03-29T06:21:38.600Z,100639.02
2023-03-29T06:24:06.941Z,100639.48
2023-03-29T06:26:38.846Z,100639.49
2023-03-29T06:29:06.122Z,100637.52
2023-03-29T06:31:36.338Z,100631.36
2023-03-29T06:34:04.872Z,100633.33
2023-03-29T06:36:51.171Z,100630.66
2023-03-29T06:39:19.859Z,100635.52
2023-03-29T06:42:20.095Z,100636.80
2023-03-29T06:45:07.025Z,100635.31
2023-03-29T06:47:34.452Z,100636.20
2023-03-29T06:50:01.667Z,100634.88
2023-03-29T06:52:46.451Z,100637.77
2023-03-29T06:55:13.772Z,100637.98
2023-03-29T06:57:40.983Z,100641.83
2023-03-29T07:00:28.780Z,100645.57
2023-03-29T07:03:20.445Z,100639.52
2023-03-29T07:05:52.296Z,100641.42
2023-03-29T07:08:22.615Z,100640.56
2023-03-29T07:11:01.474Z,100639.21
2023-03-29T07:13:52.571Z,100634.94
2023-03-29T07:16:20.780Z,100635.91
2023-03-29T07:18:52.063Z,100637.81
2023-03-29T07:21:30.733Z,100637.03
2023-03-29T07:24:01.856Z,100633.23
2023-03-29T07:26:30.664Z,100635.06
2023-03-29T07:28:58.898Z,100630.41
2023-03-29T07:31:26.316Z,100629.14
2023-03-29T07:34:00.764Z,100627.64
2023-03-29T07:36:28.787Z,100630.49
2023-03-29T07:38:57.249Z,100620.46
2023-03-29T07:41:25.369Z,100621.38
2023-03-29T07:44:05.098Z,100615.95
2023-03-29T07:46:33.543Z,100616.85
2023-03-29T07:49:00.593Z,100617.13
2023-03-29T07:51:27.951Z,100619.34
2023-03-29T07:54:02.319Z,100619.40
2023-03-29T07:56:42.454Z,100622.75
2023-03-29T07:59:15.217Z,100621.34
2023-03-29T08:01:43.311Z,100624.39
2023-03-29T08:04:10.517Z,100618.04
2023-03-29T08:06:58.101Z,100623.58
2023-03-29T08:09:31.883Z,100620.82
2023-03-29T08:11:59.321Z,100619.04
2023-03-29T08:14:32.361Z,100621.05
2023-03-29T08:17:07.132Z,100617.09
2023-03-29T08:19:39.316Z,100619.43
2023-03-29T08:22:08.256Z,100621.91
2023-03-29T08:24:54.507Z,100613.48
2023-03-29T08:27:23.554Z,100612.16
2023-03-29T08:29:50.903Z,100611.89
2023-03-29T08:32:18.210Z,100608.66
2023-03-29T08:34:45.461Z,100609.02
2023-03-29T08:37:19.298Z,100601.75
2023-03-29T08:39:48.666Z,100601.58
2023-03-29T08:42:41.059Z,100602.32
2023-03-29T08:45:16.757Z,100600.39
2023-03-29T08:47:50.962Z,100599.41
2023-03-29T08:50:20.466Z,100596.23
2023-03-29T08:53:01.090Z,100596.02
2023-03-29T08:56:05.180Z,100593.63
2023-03-29T08:58:54.059Z,100591.72
2023-03-29T09:01:23.733Z,100587.30
2023-03-29T09:04:10.022Z,100590.57
2023-03-29T09:06:58.327Z,100587.98
2023-03-29T09:09:33.469Z,100588.27
2023-03-29T09:12:16.875Z,100589.23
2023-03-29T09:15:04.652Z,100588.67
2023-03-29T09:17:54.041Z,100585.58
2023-03-29T09:20:39.025Z,100584.95
2023-03-29T09:23:15.301Z,100580.27
2023-03-29T09:26:29.934Z,100576.27
2023-03-29T09:29:40.110Z,100574.91
2023-03-29T09:32:20.053Z,100572.51
2023-03-29T09:35:03.481Z,100572.21
2023-03-29T09:37:33.961Z,100571.76
2023-03-29T09:40:05.291Z,100571.46
2023-03-29T09:42:45.740Z,100564.98
2023-03-29T09:45:13.377Z,100562.69
2023-03-29T09:47:59.265Z,100562.52
2023-03-29T09:50:35.403Z,100562.21
2023-03-29T09:53:05.612Z,100556.52
2023-03-29T09:55:37.407Z,100554.67
2023-03-29T09:58:26.268Z,100556.75
2023-03-29T10:00:58.325Z,100555.33
2023-03-29T10:03:28.684Z,100551.06
2023-03-29T10:06:09.793Z,100553.21
2023-03-29T10:08:41.808Z,100549.48
2023-03-29T10:11:37.098Z,100542.03
2023-03-29T10:14:18.292Z,100543.43
2023-03-29T10:16:46.524Z,100537.73
2023-03-29T10:19:20.331Z,100537.40
2023-03-29T10:21:49.215Z,100528.78
2023-03-29T10:24:21.394Z,100530.50
2023-03-29T10:26:55.585Z,100524.09
2023-03-29T10:29:26.479Z,100523.73
2023-03-29T10:31:54.013Z,100525.44
2023-03-29T10:34:26.269Z,100524.27
2023-03-29T10:37:00.307Z,100525.97
2023-03-29T10:39:32.587Z,100524.02
2023-03-29T10:42:01.402Z,100522.93
2023-03-29T10:44:33.299Z,100526.36
2023-03-29T10:47:16.958Z,100518.60
2023-03-29T10:49:47.930Z,100516.54
2023-03-29T10:52:17.371Z,100516.55
2023-03-29T10:54:45.750Z,100510.16
2023-03-29T10:57:24.748Z,100506.23
2023-03-29T11:00:08.044Z,100494.20
2023-03-29T11:03:07.313Z,100494.41
2023-03-29T11:05:51.271Z,100495.92
2023-03-29T11:08:35.596Z,100493.13
2023-03-29T11:11:18.084Z,100491.41
2023-03-29T11:13:49.732Z,100491.25
2023-03-29T11:16:48.463Z,100488.96
2023-03-29T11:19:50.114Z,100480.48
2023-03-29T11:22:31.777Z,100474.41
2023-03-29T11:25:30.157Z,100468.08
2023-03-29T11:28:22.329Z,100463.67
2023-03-29T11:31:11.824Z,100462.20
2023-03-29T11:33:52.697Z,100456.61
2023-03-29T11:36:31.908Z,100459.65
2023-03-29T11:39:21.107Z,100456.42
2023-03-29T11:41:54.674Z,100453.40
2023-03-29T11:44:29.885Z,100448.92
2023-03-29T11:47:09.902Z,100443.92
2023-03-29T11:49:59.439Z,100443.27
2023-03-29T11:52:40.208Z,100439.33
2023-03-29T11:55:28.923Z,100437.52
2023-03-29T11:58:02.601Z,100434.45
2023-03-29T12:00:35.406Z,100427.95
2023-03-29T12:03:28.786Z,100426.21
2023-03-29T12:06:04.508Z,100427.30
2023-03-29T12:08:35.628Z,100424.53
2023-03-29T12:11:20.592Z,100430.17
2023-03-29T12:13:53.723Z,100428.35
2023-03-29T12:16:31.261Z,100427.77
2023-03-29T12:19:05.330Z,100426.41
2023-03-29T12:21:35.474Z,100420.77
2023-03-29T12:24:03.070Z,100415.92
2023-03-29T12:26:40.539Z,100409.73
2023-03-29T12:29:27.858Z,100407.70
2023-03-29T12:32:25.416Z,100404.61
2023-03-29T12:35:20.932Z,100400.31
2023-03-29T12:38:30.934Z,100398.29
2023-03-29T12:41:20.466Z,100398.27
2023-03-29T12:44:16.861Z,100396.65
2023-03-29T12:46:59.584Z,100395.88
2023-03-29T12:49:39.035Z,100392.61
2023-03-29T12:52:23.692Z,100386.20
2023-03-29T12:55:00.155Z,100381.89
2023-03-29T12:57:47.652Z,100372.77
2023-03-29T13:00:26.560Z,100370.69
2023-03-29T13:03:03.859Z,100369.02
2023-03-29T13:05:36.869Z,100367.13
2023-03-29T13:08:31.409Z,100367.43
2023-03-29T13:10:58.993Z,100359.23
2023-03-29T13:13:29.738Z,100363.56
2023-03-29T13:16:11.972Z,100363.61
2023-03-29T13:19:03.129Z,100363.79
2023-03-29T13:21:32.939Z,100357.27
2023-03-29T13:24:05.643Z,100360.55
2023-03-29T13:26:40.982Z,100358.59
2023-03-29T13:29:26.239Z,100358.64
2023-03-29T13:32:03.984Z,100356.16
2023-03-29T13:34:43.229Z,100356.52
2023-03-29T13:37:37.586Z,100357.42
2023-03-29T13:40:31.871Z,100362.27
2023-03-29T13:43:10.691Z,100362.23
2023-03-29T13:45:38.954Z,100360.02
2023-03-29T13:48:25.053Z,100362.91
2023-03-29T13:50:55.924Z,100354.78
2023-03-29T13:53:35.052Z,100355.13
2023-03-29T13:56:03.571Z,100345.34
2023-03-29T13:58:48.148Z,100347.16
2023-03-29T14:01:16.551Z,100346.90
2023-03-29T14:03:46.940Z,100348.80
2023-03-29T14:06:18.042Z,100344.73
2023-03-29T14:08:45.434Z,100347.64
2023-03-29T14:11:23.186Z,100340.45
2023-03-29T14:13:55.729Z,100342.71
2023-03-29T14:16:27.212Z,100344.60
2023-03-29T14:18:59.298Z,100339.09
2023-03-29T14:21:26.671Z,100335.54
2023-03-29T14:24:02.149Z,100334.64
2023-03-29T14:26:34.664Z,100328.64
2023-03-29T14:29:03.054Z,100324.50
2023-03-29T14:31:34.337Z,100322.47
2023-03-29T14:34:04.267Z,100322.95
2023-03-29T14:36:33.689Z,100324.11
2023-03-29T14:39:16.165Z,100325.41
2023-03-29T14:41:50.505Z,100324.67
2023-03-29T14:44:20.085Z,100319.80
2023-03-29T14:46:47.539Z,100318.48
2023-03-29T14:49:19.504Z,100318.00
2023-03-29T14:51:47.959Z,100313.84
2023-03-29T14:54:27.834Z,100312.95
2023-03-29T14:56:55.839Z,100311.16
2023-03-29T14:59:36.447Z,100309.83
2023-03-29T15:02:04.929Z,100307.24
2023-03-29T15:04:36.006Z,100303.73
2023-03-29T15:07:06.273Z,100297.67
2023-03-29T15:09:34.963Z,100295.34
2023-03-29T15:12:03.519Z,100292.32
2023-03-29T15:14:34.079Z,100289.73
2023-03-29T15:17:04.855Z,100288.19
2023-03-29T15:19:32.404Z,100289.77
2023-03-29T15:22:11.217Z,100289.48
2023-03-29T15:24:45.201Z,100284.12
2023-03-29T15:27:18.230Z,100277.31
2023-03-29T15:29:47.412Z,100271.25
2023-03-29T15:32:25.149Z,100272.13
2023-03-29T15:35:22.526Z,100273.19
2023-03-29T15:37:51.652Z,100265.02
2023-03-29T15:40:25.809Z,100263.38
2023-03-29T15:42:54.574Z,100257.25
2023-03-29T15:45:22.386Z,100256.55
2023-03-29T15:47:49.553Z,100253.31
2023-03-29T15:50:16.870Z,100248.39
2023-03-29T15:52:43.889Z,100242.02
2023-03-29T15:55:11.576Z,100237.60
2023-03-29T15:57:39.405Z,100234.65
2023-03-29T16:00:09.471Z,100230.92
2023-03-29T16:02:41.134Z,100231.45
2023-03-29T16:05:13.156Z,100234.69
2023-03-29T16:07:40.489Z,100232.33
2023-03-29T16:10:08.108Z,100234.47
2023-03-29T16:12:37.937Z,100230.89
2023-03-29T16:15:17.818Z,100231.86
2023-03-29T16:17:45.106Z,100227.11
2023-03-29T16:20:20.008Z,100227.27
2023-03-29T16:22:49.052Z,100233.36
2023-03-29T16:25:19.090Z,100230.09
2023-03-29T16:27:47.024Z,100227.74
2023-03-29T16:30:14.590Z,100226.94
2023-03-29T16:32:42.114Z,100225.50
2023-03-29T16:35:24.789Z,100226.67
2023-03-29T16:37:51.868Z,100219.30
2023-03-29T16:40:18.931Z,100219.49
2023-03-29T16:42:45.957Z,100216.10
2023-03-29T16:45:18.029Z,100212.90
2023-03-29T16:47:45.774Z,100211.71
2023-03-29T16:50:19.125Z,100207.60
2023-03-29T16:52:48.511Z,100208.48
2023-03-29T16:55:19.041Z,100207.39
2023-03-29T16:57:47.529Z,100205.60
2023-03-29T17:00:17.189Z,100205.55
2023-03-29T17:02:44.724Z,100208.05
2023-03-29T17:05:12.735Z,100208.73
2023-03-29T17:07:40.398Z,100208.34
2023-03-29T17:10:08.312Z,100210.77
2023-03-29T17:12:35.937Z,100209.48
2023-03-29T17:15:05.254Z,100204.27
2023-03-29T17:17:32.414Z,100205.21
2023-03-29T17:19:59.888Z,100202.63
2023-03-29T17:22:26.990Z,100200.82
2023-03-29T17:24:54.035Z,100203.38
2023-03-29T17:27:21.338Z,100206.65
2023-03-29T17:29:48.450Z,100203.91
2023-03-29T17:32:15.637Z,100207.92
2023-03-29T17:34:42.629Z,100209.39
2023-03-29T17:37:09.759Z,100207.80
2023-03-29T17:39:37.898Z,100213.11
2023-03-29T17:42:05.766Z,100208.95
2023-03-29T17:44:33.479Z,100209.21
2023-03-29T17:47:01.357Z,100210.70
2023-03-29T17:49:28.718Z,100208.67
2023-03-29T17:51:55.843Z,100206.46
2023-03-29T17:54:22.952Z,100207.92
2023-03-29T17:56:50.589Z,100207.63
2023-03-29T17:59:18.092Z,100207.66
2023-03-29T18:01:45.101Z,100206.67
2023-03-29T18:04:12.586Z,100210.50
2023-03-29T18:06:39.975Z,100210.66
2023-03-29T18:09:07.107Z,100208.20
2023-03-29T18:11:34.227Z,100211.09
2023-03-29T18:14:01.324Z,100209.10
2023-03-29T18:16:29.177Z,100213.66
2023-03-29T18:18:56.671Z,100213.02
2023-03-29T18:21:26.133Z,100213.23
2023-03-29T18:23:55.520Z,100219.00
2023-03-29T18:26:24.304Z,100214.77
2023-03-29T18:28:51.745Z,100215.21
2023-03-29T18:31:20.045Z,100216.88
2023-03-29T18:33:48.037Z,100217.15
2023-03-29T18:36:15.188Z,100213.88
2023-03-29T18:38:43.821Z,100214.70
2023-03-29T18:41:13.102Z,100216.40
2023-03-29T18:43:41.576Z,100213.41
2023-03-29T18:46:08.948Z,100208.50
2023-03-29T18:48:39.055Z,100205.13
2023-03-29T18:51:07.566Z,100203.44
2023-03-29T18:53:35.946Z,100206.58
2023-03-29T18:56:04.499Z,100204.64
2023-03-29T18:58:31.802Z,100203.19
2023-03-29T19:01:03.739Z,100199.77
2023-03-29T19:03:35.081Z,100200.34
2023-03-29T19:06:03.318Z,100193.59
2023-03-29T19:08:32.463Z,100194.95
2023-03-29T19:11:04.743Z,100198.05
2023-03-29T19:13:32.158Z,100196.73
2023-03-29T19:15:59.399Z,100193.40
2023-03-29T19:18:26.620Z,100188.84
2023-03-29T19:20:56.897Z,100184.44
2023-03-29T19:23:26.146Z,100182.52
2023-03-29T19:25:57.686Z,100179.07
2023-03-29T19:28:25.310Z,100174.02
2023-03-29T19:30:52.375Z,100177.64
2023-03-29T19:33:20.086Z,100169.66
2023-03-29T19:35:50.482Z,100166.20
2023-03-29T19:38:18.527Z,100165.63
2023-03-29T19:40:50.241Z,100165.10
2023-03-29T19:43:18.091Z,100166.77
2023-03-29T19:45:46.993Z,100160.63
2023-03-29T19:48:21.930Z,100161.91
2023-03-29T19:50:49.888Z,100162.73
2023-03-29T19:53:17.002Z,100159.13
2023-03-29T19:55:45.512Z,100161.27
2023-03-29T19:58:13.240Z,100156.63
2023-03-29T20:00:41.915Z,100156.83
2023-03-29T20:03:10.003Z,100159.16
2023-03-29T20:05:39.019Z,100153.89
2023-03-29T20:08:07.268Z,100149.08
2023-03-29T20:10:34.993Z,100145.98
2023-03-29T20:13:03.235Z,100144.52
2023-03-29T20:15:30.457Z,100140.98
2023-03-29T20:17:59.584Z,100145.03
2023-03-29T20:20:27.450Z,100138.81
2023-03-29T20:22:58.289Z,100136.36
2023-03-29T20:25:26.402Z,100137.06
2023-03-29T20:27:53.626Z,100136.85
2023-03-29T20:30:20.813Z,100135.98
2023-03-29T20:32:47.907Z,100132.45
2023-03-29T20:35:15.495Z,100129.42
2023-03-29T20:37:42.638Z,100129.67
2023-03-29T20:40:11.051Z,100123.71
2023-03-29T20:42:38.820Z,100124.45
2023-03-29T20:45:07.914Z,100121.61
2023-03-29T20:47:42.576Z,100123.92
2023-03-29T20:50:10.692Z,100122.20
2023-03-29T20:52:37.889Z,100114.00
2023-03-29T20:55:05.735Z,100113.21
2023-03-29T20:57:32.988Z,100111.25
2023-03-29T21:00:00.386Z,100108.79
2023-03-29T21:02:27.620Z,100105.08
2023-03-29T21:05:00.327Z,100100.60
2023-03-29T21:07:28.908Z,100097.18
2023-03-29T21:09:56.374Z,100098.02
2023-03-29T21:12:23.705Z,100095.20
2023-03-29T21:14:51.507Z,100095.09
2023-03-29T21:17:18.777Z,100095.48
2023-03-29T21:19:45.839Z,100092.64
2023-03-29T21:22:15.977Z,100087.95
2023-03-29T21:24:43.261Z,100086.97
2023-03-29T21:27:10.306Z,100082.05
2023-03-29T21:29:37.303Z,100080.38
2023-03-29T21:32:05.018Z,100083.35
2023-03-29T21:34:32.064Z,100080.02
2023-03-29T21:36:59.246Z,100073.58
2023-03-29T21:39:27.188Z,100070.52
2023-03-29T21:41:54.389Z,100069.27
2023-03-29T21:44:21.523Z,100065.98
2023-03-29T21:46:48.537Z,100058.09
2023-03-29T21:49:15.923Z,100055.31
2023-03-29T21:51:42.962Z,100058.44
2023-03-29T21:54:11.511Z,100054.98
2023-03-29T21:56:38.552Z,100057.82
2023-03-29T21:59:05.862Z,100051.84
2023-03-29T22:01:32.964Z,100058.31
2023-03-29T22:04:00.357Z,100058.99
2023-03-29T22:06:27.322Z,100056.38
2023-03-29T22:08:54.708Z,100052.83
2023-03-29T22:11:23.319Z,100049.77
2023-03-29T22:13:52.565Z,100044.34
2023-03-29T22:16:19.713Z,100046.52
2023-03-29T22:18:49.568Z,100050.89
2023-03-29T22:21:24.763Z,100049.65
2023-03-29T22:23:53.792Z,100048.24
2023-03-29T22:26:24.365Z,100042.91
2023-03-29T22:28:51.805Z,100036.92
2023-03-29T22:31:20.740Z,100036.23
2023-03-29T22:33:49.201Z,100036.30
2023-03-29T22:36:27.156Z,100037.76
2023-03-29T22:38:55.832Z,100032.67
2023-03-29T22:41:24.570Z,100029.29
2023-03-29T22:43:53.335Z,100029.30
2023-03-29T22:46:21.271Z,100030.83
2023-03-29T22:48:48.504Z,100023.06
2023-03-29T22:51:16.333Z,100019.66
2023-03-29T22:53:43.531Z,100018.25
2023-03-29T22:56:10.588Z,100016.19
2023-03-29T22:58:37.865Z,100016.52
2023-03-29T23:01:06.727Z,100016.70
2023-03-29T23:03:34.847Z,100016.19
2023-03-29T23:06:04.835Z,100008.26
2023-03-29T23:08:33.778Z,100007.41
2023-03-29T23:11:02.358Z,100006.45
2023-03-29T23:13:30.799Z,100004.38
2023-03-29T23:16:00.058Z,100002.48
2023-03-29T23:18:29.634Z,99998.14
2023-03-29T23:20:59.002Z,100002.75
2023-03-29T23:23:28.257Z,100005.73
2023-03-29T23:25:56.011Z,100001.43
2023-03-29T23:28:27.533Z,100000.45
2023-03-29T23:31:11.695Z,99999.66
2023-03-29T23:33:42.831Z,99993.77
2023-03-29T23:36:15.807Z,99990.19
2023-03-29T23:38:45.521Z,99984.83
2023-03-29T23:41:13.313Z,99981.14
2023-03-29T23:43:42.888Z,99982.34
2023-03-29T23:46:15.681Z,99981.64
2023-03-29T23:48:47.344Z,99981.36
2023-03-29T23:51:14.916Z,99983.23
2023-03-29T23:53:42.024Z,99981.13
2023-03-29T23:56:09.673Z,99979.34
2023-03-29T23:58:37.805Z,99973.64
